Flight Track Log - Related Links

Times and Time Zones

All times are in EDT time to prevent confusion due to time zone crossing. See the DAL268 flight status page for this flight to view local times or setup timezone preferences in your user account.

Time Position Orientation Groundspeed Altitude Reporting Facility
EDT Latitude Longitude Course Direction KTS MPH feet Rate Location/Type
Thu 02:28:07 PM 37.6150 -122.3800 North 2 2  Level FlightAware ADS-B
Thu 02:33:23 PM 37.6070 -122.3860 211° Southwest 28 32 38 Level FlightAware ADS-B
Thu 02:36:00 PM 37.7406 -121.9800 65° Northeast  Level FlightAware Approximate
Thu 02:36:33 PM 37.6070 -122.3840 65° Northeast  Level FlightAware ADS-B
Thu 02:39:00 PM 37.7313 -122.0051 63° Northeast  Level FlightAware Approximate
Thu 02:39:45 PM 37.6060 -122.3830 63° Northeast 16 18  Level FlightAware ADS-B
Thu 02:42:00 PM 37.7194 -122.0348 63° Northeast  Level FlightAware Approximate
Thu 02:43:00 PM 37.7754 -121.8844 65° Northeast  Level FlightAware Approximate
Thu 02:44:00 PM 37.8231 -121.7307 67° East  Level FlightAware Approximate
Thu 02:45:00 PM 37.8761 -121.5791 72° East  Level FlightAware Approximate
Thu 02:46:00 PM 37.9262 -121.4262 63° Northeast  Level FlightAware Approximate
Thu 02:46:45 PM 37.6326 -122.3640 26° Northeast 163 188 700  Level FlightAware ADS-B
Thu 02:46:52 PM 37.6372 -122.3610 27° Northeast 168 193 900 1,714 Climbing FlightAware ADS-B
Thu 02:46:59 PM 37.6415 -122.3560 43° Northeast 178 205 1,100 1,429 Climbing FlightAware ADS-B
Thu 02:47:13 PM 37.6507 -122.3450 43° Northeast 204 235 1,400 1,167 Climbing FlightAware ADS-B
Thu 02:47:35 PM 37.6669 -122.3240 46° Northeast 228 262 1,800 1,895 Climbing FlightAware ADS-B
Thu 02:47:51 PM 37.6793 -122.3070 47° Northeast 248 285 2,600 2,813 Climbing FlightAware ADS-B
Thu 02:48:07 PM 37.6918 -122.2900 47° Northeast 249 287 3,300 2,323 Climbing FlightAware ADS-B
Thu 02:48:22 PM 37.7045 -122.2730 47° Northeast 266 306 3,800 2,364 Climbing FlightAware ADS-B
Thu 02:48:40 PM 37.7203 -122.2530 45° Northeast 272 313 4,600 2,864 Climbing FlightAware ADS-B
Thu 02:49:06 PM 37.7431 -122.2230 46° Northeast 278 320 5,900 2,800 Climbing FlightAware ADS-B
Thu 02:49:25 PM 37.7610 -122.2000 45° Northeast 286 329 6,700 2,647 Climbing FlightAware ADS-B
Thu 02:49:40 PM 37.7751 -122.1820 45° Northeast 286 329 7,400 2,700 Climbing FlightAware ADS-B
Thu 02:49:45 PM 37.7791 -122.1760 50° Northeast 288 331 7,600 2,727 Climbing FlightAware ADS-B
Thu 02:49:51 PM 37.7838 -122.1680 53° Northeast 287 330 7,900 2,667 Climbing FlightAware ADS-B
Thu 02:50:03 PM 37.7905 -122.1500 65° Northeast 289 333 8,400 2,526 Climbing FlightAware ADS-B
Thu 02:50:10 PM 37.7935 -122.1390 71° East 292 336 8,700 2,727 Climbing FlightAware ADS-B
Thu 02:50:25 PM 37.8000 -122.1140 72° East 293 337 9,400 2,348 Climbing FlightAware ADS-B
Thu 02:50:56 PM 37.8139 -122.0640 71° East 309 356 10,500 1,770 Climbing FlightAware ADS-B
Thu 02:51:26 PM 37.8278 -122.0090 72° East 339 390 11,200 1,279 Climbing FlightAware ADS-B
Thu 02:51:57 PM 37.8428 -121.9490 72° East 366 421 11,800 1,377 Climbing FlightAware ADS-B
Thu 02:52:27 PM 37.8585 -121.8860 72° East 386 444 12,600 2,000 Climbing FlightAware ADS-B
Thu 02:52:57 PM 37.8749 -121.8200 73° East 388 447 13,800 2,400 Climbing FlightAware ADS-B
Thu 02:53:27 PM 37.8912 -121.7540 73° East 395 455 15,000 2,200 Climbing FlightAware ADS-B
Thu 02:53:57 PM 37.9079 -121.6870 72° East 401 461 16,000 2,066 Climbing FlightAware ADS-B
Thu 02:54:28 PM 37.9247 -121.6180 73° East 406 467 17,100 2,066 Climbing FlightAware ADS-B
Thu 02:54:58 PM 37.9418 -121.5490 73° East 413 475 18,100 1,886 Climbing FlightAware ADS-B
Thu 02:55:38 PM 37.9648 -121.4560 73° East 417 480 19,300 1,765 Climbing FlightAware ADS-B
Thu 02:56:40 PM 38.0010 -121.3090 73° East 432 497 21,100 1,698 Climbing FlightAware ADS-B
Thu 02:57:24 PM 38.0270 -121.2000 73° East 441 507 22,300 1,605 Climbing FlightAware ADS-B
Thu 02:58:06 PM 38.0520 -121.0980 73° East 450 518 23,400 1,500 Climbing FlightAware ADS-B
Thu 02:58:48 PM 38.0780 -120.9890 73° East 458 527 24,400 1,465 Climbing FlightAware ADS-B
Thu 02:59:32 PM 38.1060 -120.8730 73° East 466 536 25,500 1,357 Climbing FlightAware ADS-B
Thu 03:00:12 PM 38.1310 -120.7690 73° East 476 548 26,300 1,154 Climbing FlightAware ADS-B
Thu 03:00:50 PM 38.1560 -120.6670 73° East 487 560 27,000 1,047 Climbing FlightAware ADS-B
Thu 03:01:38 PM 38.1870 -120.5360 73° East 499 574 27,800 1,069 Climbing FlightAware ADS-B
Thu 03:02:31 PM 38.2230 -120.3840 73° East 507 583 28,800 1,613 Climbing FlightAware ADS-B
Thu 03:03:11 PM 38.2500 -120.2730 73° East 494 568 30,300 1,432 Climbing FlightAware ADS-B
Thu 03:03:59 PM 38.2760 -120.1360 76° East 506 582 30,900 886 Climbing FlightAware ADS-B
Thu 03:04:39 PM 38.2950 -120.0180 78° East 511 588 31,600 1,200 Climbing FlightAware ADS-B
Thu 03:05:19 PM 38.3140 -119.9030 78° East 510 587 32,500 1,171 Climbing FlightAware ADS-B
Thu 03:06:01 PM 38.3360 -119.7750 78° East 516 594 33,200 907 Climbing FlightAware ADS-B
Thu 03:06:45 PM 38.3580 -119.6470 78° East 521 600 33,800 907 Climbing FlightAware ADS-B
Thu 03:07:27 PM 38.3800 -119.5190 78° East 527 606 34,500 857 Climbing FlightAware ADS-B
Thu 03:08:09 PM 38.4010 -119.3910 78° East 531 611 35,000 349 Climbing FlightAware ADS-B
Thu 03:08:53 PM 38.4240 -119.2550 78° East 535 616 35,000  Level FlightAware ADS-B
Thu 03:09:25 PM 38.4400 -119.1550 78° East 539 620 35,000  Level FlightAware ADS-B
Thu 03:10:07 PM 38.4610 -119.0240 78° East 540 621 35,000  Level FlightAware ADS-B
Thu 03:10:49 PM 38.4810 -118.8990 78° East 540 621 35,000  Level FlightAware ADS-B
Thu 03:11:32 PM 38.5020 -118.7650 79° East 541 623 35,000  Level FlightAware ADS-B
Thu 03:12:09 PM 38.5200 -118.6460 79° East 540 621 35,000  Level FlightAware ADS-B
Thu 03:12:53 PM 38.5420 -118.5060 79° East 540 621 35,000  Level FlightAware ADS-B
Thu 03:13:39 PM 38.5630 -118.3670 79° East 540 621 35,000  Level FlightAware ADS-B
Thu 03:14:13 PM 38.5790 -118.2610 79° East 540 621 35,000  Level FlightAware ADS-B
Thu 03:14:55 PM 38.6000 -118.1270 79° East 541 623 35,000  Level FlightAware ADS-B
Thu 03:15:30 PM 38.6160 -118.0200 79° East 541 623 35,000  Level FlightAware ADS-B
Thu 03:16:19 PM 38.6360 -117.8890 79° East 541 623 35,000  Level FlightAware ADS-B
Thu 03:16:56 PM 38.6510 -117.7910 79° East 541 623 35,000  Level FlightAware ADS-B
Thu 03:17:57 PM 38.6750 -117.6270 79° East 541 623 35,000  Level FlightAware ADS-B
Thu 03:18:31 PM 38.6890 -117.5360 79° East 541 623 35,000  Level FlightAware ADS-B
Thu 03:19:07 PM 38.7040 -117.4400 79° East 541 623 35,000  Level FlightAware ADS-B
Thu 03:19:43 PM 38.7180 -117.3440 79° East 541 623 35,000  Level FlightAware ADS-B
Thu 03:20:31 PM 38.7380 -117.2150 79° East 541 623 35,000  Level FlightAware ADS-B
Thu 03:21:07 PM 38.7520 -117.1190 79° East 541 623 35,000  Level FlightAware ADS-B
Thu 03:21:55 PM 38.7720 -116.9900 79° East 541 623 35,000  Level FlightAware ADS-B
Thu 03:22:32 PM 38.7870 -116.8910 79° East 541 623 35,000  Level FlightAware ADS-B
Thu 03:23:33 PM 38.8120 -116.7280 79° East 541 623 35,000  Level FlightAware ADS-B
Thu 03:24:21 PM 38.8310 -116.5990 79° East 541 623 35,000  Level FlightAware ADS-B
Thu 03:24:59 PM 38.8470 -116.4970 79° East 541 623 35,000  Level FlightAware ADS-B
Thu 03:25:33 PM 38.8772 -116.1575 79° East 538 619 35,000  Level Salt Lake Center
Thu 03:26:35 PM 38.9025 -115.9697 80° East 533 613 35,000  Level Salt Lake Center
Thu 03:27:37 PM 38.9269 -115.7808 80° East 535 616 35,000  Level Salt Lake Center
Thu 03:28:39 PM 38.9550 -115.5547 81° East 534 615 35,000  Level Salt Lake Center
Thu 03:29:41 PM 38.9817 -115.3586 80° East 536 617 35,000  Level Salt Lake Center
Thu 03:30:43 PM 39.0053 -115.1683 81° East 539 620 35,000  Level Salt Lake Center
Thu 03:31:45 PM 39.0283 -114.9817 81° East 532 612 35,000  Level Salt Lake Center
Thu 03:32:47 PM 39.0517 -114.7925 81° East 535 616 35,000  Level Salt Lake Center
Thu 03:33:49 PM 39.0736 -114.6039 81° East 533 613 35,000  Level Salt Lake Center
Thu 03:39:17 PM 39.1940 -113.5520 81° East 536 617 35,000  Level FlightAware ADS-B
Thu 03:39:39 PM 39.2020 -113.4690 83° East 534 615 35,000  Level FlightAware ADS-B
Thu 03:41:06 PM 39.2270 -113.2360 82° East 534 615 35,000  Level FlightAware ADS-B
Thu 03:41:55 PM 39.2477 -113.0390 82° East 534 615 35,000  Level FlightAware ADS-B
Thu 03:42:25 PM 39.2575 -112.9450 82° East 533 613 35,000  Level FlightAware ADS-B
Thu 03:42:56 PM 39.2674 -112.8490 82° East 534 615 35,000  Level FlightAware ADS-B
Thu 03:43:27 PM 39.2773 -112.7530 82° East 534 615 35,000  Level FlightAware ADS-B
Thu 03:43:57 PM 39.2870 -112.6570 83° East 533 613 35,000  Level FlightAware ADS-B
Thu 03:44:28 PM 39.2977 -112.5600 82° East 533 613 35,000  Level FlightAware ADS-B
Thu 03:44:48 PM 39.3110 -112.4980 74° East 533 613 35,000  Level FlightAware ADS-B
Thu 03:45:16 PM 39.3367 -112.4160 68° East 533 613 35,000  Level FlightAware ADS-B
Thu 03:45:46 PM 39.3671 -112.3290 66° East 532 612 35,000  Level FlightAware ADS-B
Thu 03:46:16 PM 39.3985 -112.2420 65° Northeast 532 612 35,000  Level FlightAware ADS-B
Thu 03:46:46 PM 39.4302 -112.1550 65° Northeast 532 612 35,000  Level FlightAware ADS-B
Thu 03:47:17 PM 39.4626 -112.0670 64° Northeast 531 611 35,000  Level FlightAware ADS-B
Thu 03:47:48 PM 39.4954 -111.9780 64° Northeast 531 611 35,000  Level FlightAware ADS-B
Thu 03:48:18 PM 39.5270 -111.8910 65° Northeast 531 611 35,000  Level FlightAware ADS-B
Thu 03:48:49 PM 39.5587 -111.8050 64° Northeast 531 611 35,000  Level FlightAware ADS-B
Thu 03:49:21 PM 39.5923 -111.7120 65° Northeast 531 611 35,000  Level FlightAware ADS-B
Thu 03:49:54 PM 39.6264 -111.6180 65° Northeast 532 612 35,000  Level FlightAware ADS-B
Thu 03:50:25 PM 39.6584 -111.5290 65° Northeast 532 612 35,000  Level FlightAware ADS-B
Thu 03:50:56 PM 39.6907 -111.4390 65° Northeast 531 611 35,000  Level FlightAware ADS-B
Thu 03:51:22 PM 39.7175 -111.3630 65° Northeast 532 612 35,000  Level FlightAware ADS-B
Thu 03:51:31 PM 39.7256 -111.3360 69° East 535 616 35,000  Level FlightAware ADS-B
Thu 03:51:38 PM 39.7305 -111.3150 73° East 536 617 35,000  Level FlightAware ADS-B
Thu 03:51:49 PM 39.7359 -111.2810 78° East 537 618 35,000  Level FlightAware ADS-B
Thu 03:52:20 PM 39.7478 -111.1800 81° East 537 618 35,000  Level FlightAware ADS-B
Thu 03:52:49 PM 39.7601 -111.0900 80° East 537 618 35,000  Level FlightAware ADS-B
Thu 03:53:19 PM 39.7718 -110.9940 81° East 538 619 35,000  Level FlightAware ADS-B
Thu 03:53:50 PM 39.7839 -110.8960 81° East 538 619 35,000  Level FlightAware ADS-B
Thu 03:54:46 PM 39.8030 -110.7380 81° East 537 618 35,000  Level FlightAware ADS-B
Thu 03:55:26 PM 39.8210 -110.5980 80° East 537 618 35,000  Level FlightAware ADS-B
Thu 03:56:08 PM 39.8370 -110.4630 81° East 538 619 35,000  Level FlightAware ADS-B
Thu 03:56:48 PM 39.8520 -110.3450 81° East 537 618 35,000  Level FlightAware ADS-B
Thu 03:57:23 PM 39.8670 -110.2200 81° East 540 621 35,000  Level FlightAware ADS-B
Thu 03:58:09 PM 39.8840 -110.0720 81° East 542 624 35,000  Level FlightAware ADS-B
Thu 03:58:49 PM 39.9000 -109.9420 81° East 543 625 35,000  Level FlightAware ADS-B
Thu 03:59:24 PM 39.9120 -109.8320 82° East 544 626 35,000  Level FlightAware ADS-B
Thu 04:00:02 PM 39.9270 -109.7070 81° East 545 627 35,000  Level FlightAware ADS-B
Thu 04:00:47 PM 39.9420 -109.5690 82° East 543 625 35,000  Level FlightAware ADS-B
Thu 04:01:33 PM 39.9600 -109.4130 81° East 543 625 35,000  Level FlightAware ADS-B
Thu 04:02:14 PM 39.9720 -109.2860 83° East 545 627 35,000  Level FlightAware ADS-B
Thu 04:02:54 PM 39.9850 -109.1500 83° East 545 627 35,000  Level FlightAware ADS-B
Thu 04:03:35 PM 39.9980 -109.0190 83° East 544 626 35,000  Level FlightAware ADS-B
Thu 04:04:26 PM 40.0170 -108.8510 82° East 542 624 35,000  Level FlightAware ADS-B
Thu 04:05:06 PM 40.0330 -108.7240 81° East 542 624 35,000  Level FlightAware ADS-B
Thu 04:05:51 PM 40.0520 -108.5810 80° East 541 623 35,000  Level FlightAware ADS-B
Thu 04:06:22 PM 40.0660 -108.4860 79° East 540 621 35,000  Level FlightAware ADS-B
Thu 04:07:07 PM 40.0970 -108.3390 75° East 535 616 35,000  Level FlightAware ADS-B
Thu 04:07:47 PM 40.1320 -108.2210 69° East 531 611 35,000  Level FlightAware ADS-B
Thu 04:08:24 PM 40.1690 -108.1120 66° East 530 610 35,000  Level FlightAware ADS-B
Thu 04:09:04 PM 40.2070 -107.9940 67° East 530 610 35,000  Level FlightAware ADS-B
Thu 04:09:49 PM 40.2500 -107.8620 67° East 528 608 35,000  Level FlightAware ADS-B
Thu 04:10:31 PM 40.2900 -107.7390 67° East 526 605 35,000 439 Level FlightAware ADS-B
Thu 04:11:11 PM 40.3290 -107.6230 66° East 521 600 35,600 963 Climbing FlightAware ADS-B
Thu 04:11:52 PM 40.3590 -107.5290 67° East 517 595 36,300 1,024 Climbing FlightAware ADS-B
Thu 04:12:33 PM 40.4060 -107.3870 66° East 508 585 37,000 519 Climbing FlightAware ADS-B
Thu 04:13:13 PM 40.4420 -107.2750 67° East 507 583 37,000  Level FlightAware ADS-B
Thu 04:13:53 PM 40.4790 -107.1590 67° East 509 586 37,000  Level FlightAware ADS-B
Thu 04:14:36 PM 40.5190 -107.0360 67° East 508 585 37,000  Level FlightAware ADS-B
Thu 04:15:17 PM 40.5540 -106.9230 68° East 507 583 37,000  Level FlightAware ADS-B
Thu 04:16:01 PM 40.5950 -106.7960 67° East 504 580 37,000  Level FlightAware ADS-B
Thu 04:16:42 PM 40.6310 -106.6790 68° East 500 575 37,000  Level FlightAware ADS-B
Thu 04:17:24 PM 40.6670 -106.5650 67° East 497 572 37,000  Level FlightAware ADS-B
Thu 04:18:04 PM 40.7030 -106.4510 67° East 498 573 37,000  Level FlightAware ADS-B
Thu 04:18:40 PM 40.7350 -106.3490 67° East 499 574 37,000  Level FlightAware ADS-B
Thu 04:19:20 PM 40.7670 -106.2440 68° East 500 575 37,000  Level FlightAware ADS-B
Thu 04:20:05 PM 40.8090 -106.1110 67° East 501 577 37,000  Level FlightAware ADS-B
Thu 04:20:37 PM 40.8370 -106.0180 68° East 501 577 37,000  Level FlightAware ADS-B
Thu 04:21:13 PM 40.8680 -105.9190 67° East 498 573 37,000  Level FlightAware ADS-B
Thu 04:21:55 PM 40.9040 -105.8010 68° East 499 574 37,000  Level FlightAware ADS-B
Thu 04:22:41 PM 40.9430 -105.6700 68° East 498 573 37,000  Level FlightAware ADS-B
Thu 04:23:21 PM 40.9780 -105.5560 68° East 500 575 37,000  Level FlightAware ADS-B
Thu 04:24:02 PM 41.0120 -105.4420 68° East 497 572 37,000  Level FlightAware ADS-B
Thu 04:24:40 PM 41.0450 -105.3340 68° East 495 570 37,000  Level FlightAware ADS-B
Thu 04:25:16 PM 41.0752 -105.2320 69° East 495 570 37,000  Level FlightAware ADS-B
Thu 04:25:47 PM 41.1013 -105.1450 68° East 497 572 37,000  Level FlightAware ADS-B
Thu 04:26:18 PM 41.1273 -105.0570 69° East 498 573 37,000  Level FlightAware ADS-B
Thu 04:26:49 PM 41.1533 -104.9690 69° East 501 577 37,000  Level FlightAware ADS-B
Thu 04:27:19 PM 41.1792 -104.8810 69° East 502 578 37,000  Level FlightAware ADS-B
Thu 04:27:50 PM 41.2048 -104.7940 69° East 503 579 37,000  Level FlightAware ADS-B
Thu 04:28:13 PM 41.2234 -104.7280 69° East 504 580 37,000  Level FlightAware ADS-B
Thu 04:28:43 PM 41.2443 -104.6380 73° East 505 581 37,000  Level FlightAware ADS-B
Thu 04:29:13 PM 41.2644 -104.5480 73° East 505 581 37,000  Level FlightAware ADS-B
Thu 04:29:45 PM 41.2861 -104.4530 73° East 505 581 37,000  Level FlightAware ADS-B
Thu 04:30:15 PM 41.3067 -104.3640 73° East 505 581 37,000  Level FlightAware ADS-B
Thu 04:30:46 PM 41.3275 -104.2750 73° East 505 581 37,000  Level FlightAware ADS-B
Thu 04:31:16 PM 41.3488 -104.1840 73° East 505 581 37,000  Level FlightAware ADS-B
Thu 04:31:46 PM 41.3696 -104.0950 73° East 507 583 37,000  Level FlightAware ADS-B
Thu 04:32:17 PM 41.3905 -104.0050 73° East 509 586 37,000  Level FlightAware ADS-B
Thu 04:32:47 PM 41.4112 -103.9150 73° East 509 586 37,000  Level FlightAware ADS-B
Thu 04:33:18 PM 41.4324 -103.8220 73° East 511 588 37,000  Level FlightAware ADS-B
Thu 04:33:52 PM 41.4557 -103.7200 73° East 510 587 37,000  Level FlightAware ADS-B
Thu 04:34:23 PM 41.4768 -103.6270 73° East 510 587 37,000  Level FlightAware ADS-B
Thu 04:34:53 PM 41.4972 -103.5370 73° East 509 586 37,000  Level FlightAware ADS-B
Thu 04:35:23 PM 41.5175 -103.4470 73° East 507 583 37,000  Level FlightAware ADS-B
Thu 04:35:53 PM 41.5378 -103.3560 73° East 507 583 37,000  Level FlightAware ADS-B
Thu 04:36:25 PM 41.5591 -103.2600 73° East 507 583 37,000  Level FlightAware ADS-B
Thu 04:37:02 PM 41.5833 -103.1510 73° East 507 583 37,000  Level FlightAware ADS-B
Thu 04:37:36 PM 41.6060 -103.0480 74° East 505 581 37,000  Level FlightAware ADS-B
Thu 04:37:47 PM 41.6131 -103.0160 73° East 507 583 37,000  Level FlightAware ADS-B
Thu 04:38:21 PM 41.6357 -102.9130 74° East 505 581 37,000  Level FlightAware ADS-B
Thu 04:38:52 PM 41.6559 -102.8210 74° East 504 580 37,000  Level FlightAware ADS-B
Thu 04:39:22 PM 41.6753 -102.7310 74° East 504 580 37,000  Level FlightAware ADS-B
Thu 04:40:06 PM 41.7030 -102.6030 74° East 502 578 37,000  Level FlightAware ADS-B
Thu 04:40:39 PM 41.7246 -102.5030 74° East 502 578 37,000  Level FlightAware ADS-B
Thu 04:41:12 PM 41.7454 -102.4050 74° East 502 578 37,000  Level FlightAware ADS-B
Thu 04:41:42 PM 41.7649 -102.3140 74° East 503 579 37,000  Level FlightAware ADS-B
Thu 04:42:14 PM 41.7851 -102.2190 74° East 503 579 37,000  Level FlightAware ADS-B
Thu 04:42:45 PM 41.8048 -102.1260 74° East 503 579 37,000  Level FlightAware ADS-B
Thu 04:43:22 PM 41.8277 -102.0170 74° East 502 578 37,000  Level FlightAware ADS-B
Thu 04:43:53 PM 41.8469 -101.9240 74° East 502 578 37,000  Level FlightAware ADS-B
Thu 04:44:23 PM 41.8659 -101.8340 74° East 502 578 37,000  Level FlightAware ADS-B
Thu 04:44:57 PM 41.8868 -101.7330 74° East 501 577 37,000  Level FlightAware ADS-B
Thu 04:45:27 PM 41.9057 -101.6410 75° East 502 578 37,000  Level FlightAware ADS-B
Thu 04:46:41 PM 41.9439 -101.4536 75° East 498 573 37,000  Level Minneapolis Center
Thu 04:47:43 PM 41.9806 -101.2700 75° East 505 581 37,000  Level Minneapolis Center
Thu 04:48:45 PM 42.0247 -101.0506 75° East 506 582 37,000  Level Minneapolis Center
Thu 04:49:47 PM 42.0614 -100.8678 75° East 506 582 37,000  Level Minneapolis Center
Thu 04:50:50 PM 42.0978 -100.6822 75° East 510 587 37,000  Level Minneapolis Center
Thu 04:51:52 PM 42.1342 -100.4967 75° East 511 588 37,000  Level Minneapolis Center
Thu 04:52:53 PM 42.1628 -100.3494 75° East 509 586 37,000  Level Minneapolis Center
Thu 04:53:56 PM 42.2058 -100.1231 76° East 516 594 37,000  Level Minneapolis Center
Thu 04:54:59 PM 42.2414 -99.9364 76° East 518 596 37,000  Level Denver Center
Thu 04:56:12 PM 42.2856 -99.7078 75° East 518 596 37,000  Level Minneapolis Center
Thu 04:57:14 PM 42.3269 -99.4819 76° East 516 594 37,000  Level Minneapolis Center
Thu 04:58:06 PM 42.3556 -99.3272 76° East 519 597 37,000  Level Denver Center
Thu 04:59:19 PM 42.3789 -99.0964 82° East 522 601 37,000  Level Minneapolis Center
Thu 05:00:21 PM 42.3936 -98.9003 84° East 523 602 37,000  Level Minneapolis Center
Thu 05:01:23 PM 42.4100 -98.7050 83° East 522 601 37,000 255 Level Minneapolis Center
Thu 05:07:12 PM 42.4800 -97.5560 83° East 39,000 293 Climbing FlightAware ADS-B
Thu 05:08:12 PM 42.4900 -97.3550 86° East 521 600 39,000  Level FlightAware ADS-B
Thu 05:09:07 PM 42.5000 -97.1660 86° East 521 600 39,000  Level FlightAware ADS-B
Thu 05:09:43 PM 42.5060 -97.0550 86° East 521 600 39,000  Level FlightAware ADS-B
Thu 05:10:30 PM 42.5130 -96.9040 86° East 521 600 39,000  Level FlightAware ADS-B
Thu 05:11:14 PM 42.5200 -96.7560 86° East 523 602 39,000  Level FlightAware ADS-B
Thu 05:11:54 PM 42.5270 -96.6250 86° East 524 603 39,000  Level FlightAware ADS-B
Thu 05:12:37 PM 42.5330 -96.4850 87° East 522 601 39,000  Level FlightAware ADS-B
Thu 05:13:15 PM 42.5390 -96.3620 86° East 523 602 39,000  Level FlightAware ADS-B
Thu 05:13:54 PM 42.5440 -96.2440 87° East 522 601 39,000  Level FlightAware ADS-B
Thu 05:14:53 PM 42.5520 -96.0560 87° East 520 598 39,000  Level FlightAware ADS-B
Thu 05:15:28 PM 42.5570 -95.9290 87° East 519 597 39,000  Level FlightAware ADS-B
Thu 05:16:10 PM 42.5620 -95.7890 87° East 518 596 39,000  Level FlightAware ADS-B
Thu 05:16:52 PM 42.5680 -95.6550 86° East 518 596 39,000  Level FlightAware ADS-B
Thu 05:17:36 PM 42.5730 -95.5150 87° East 519 597 39,000  Level FlightAware ADS-B
Thu 05:18:20 PM 42.5780 -95.3680 87° East 520 598 39,000  Level FlightAware ADS-B
Thu 05:19:02 PM 42.5830 -95.2300 87° East 520 598 39,000  Level FlightAware ADS-B
Thu 05:19:40 PM 42.5870 -95.1070 87° East 521 600 39,000  Level FlightAware ADS-B
Thu 05:20:20 PM 42.5910 -94.9820 87° East 521 600 39,000  Level FlightAware ADS-B
Thu 05:20:58 PM 42.5950 -94.8560 87° East 522 601 39,000  Level FlightAware ADS-B
Thu 05:21:42 PM 42.5990 -94.7120 88° East 521 600 39,000  Level FlightAware ADS-B
Thu 05:22:18 PM 42.6030 -94.5940 87° East 521 600 39,000  Level FlightAware ADS-B
Thu 05:22:58 PM 42.6070 -94.4630 88° East 520 598 39,000  Level FlightAware ADS-B
Thu 05:23:38 PM 42.6100 -94.3380 88° East 518 596 39,000  Level FlightAware ADS-B
Thu 05:24:20 PM 42.6140 -94.1980 88° East 518 596 39,000  Level FlightAware ADS-B
Thu 05:25:04 PM 42.6140 -94.0540 90° East 518 596 39,000  Level FlightAware ADS-B
Thu 05:25:56 PM 42.6140 -93.8910 90° East 517 595 39,000  Level FlightAware ADS-B
Thu 05:26:42 PM 42.6140 -93.7390 90° East 518 596 39,000  Level FlightAware ADS-B
Thu 05:27:18 PM 42.6150 -93.6280 89° East 518 596 39,000  Level FlightAware ADS-B
Thu 05:27:58 PM 42.6160 -93.5000 89° East 517 595 39,000  Level FlightAware ADS-B
Thu 05:28:42 PM 42.6160 -93.3510 90° East 517 595 39,000  Level FlightAware ADS-B
Thu 05:29:22 PM 42.6170 -93.2290 89° East 518 596 39,000  Level FlightAware ADS-B
Thu 05:30:06 PM 42.6170 -93.0780 90° East 518 596 39,000  Level FlightAware ADS-B
Thu 05:30:44 PM 42.6170 -92.9590 90° East 519 597 39,000  Level FlightAware ADS-B
Thu 05:31:26 PM 42.6160 -92.8250 91° East 519 597 39,000  Level FlightAware ADS-B
Thu 05:32:10 PM 42.6160 -92.6830 90° East 520 598 39,000  Level FlightAware ADS-B
Thu 05:32:52 PM 42.6150 -92.5440 91° East 520 598 39,000  Level FlightAware ADS-B
Thu 05:33:34 PM 42.6140 -92.4070 91° East 519 597 39,000  Level FlightAware ADS-B
Thu 05:34:30 PM 42.6130 -92.2220 90° East 518 596 39,000  Level FlightAware ADS-B
Thu 05:35:14 PM 42.6120 -92.0780 90° East 519 597 39,000  Level FlightAware ADS-B
Thu 05:35:56 PM 42.6100 -91.9440 91° East 520 598 39,000  Level FlightAware ADS-B
Thu 05:36:31 PM 42.6090 -91.8270 91° East 520 598 39,000  Level FlightAware ADS-B
Thu 05:37:10 PM 42.6070 -91.7030 91° East 520 598 39,000  Level FlightAware ADS-B
Thu 05:37:54 PM 42.6050 -91.5570 91° East 521 600 39,000  Level FlightAware ADS-B
Thu 05:38:32 PM 42.6040 -91.4330 91° East 521 600 39,000  Level FlightAware ADS-B
Thu 05:39:12 PM 42.6020 -91.3030 91° East 520 598 39,000  Level FlightAware ADS-B
Thu 05:39:56 PM 42.5990 -91.1590 92° East 520 598 39,000  Level FlightAware ADS-B
Thu 05:40:30 PM 42.5970 -91.0530 91° East 520 598 39,000  Level FlightAware ADS-B
Thu 05:41:32 PM 42.5930 -90.8480 91° East 522 601 39,000  Level FlightAware ADS-B
Thu 05:42:16 PM 42.5900 -90.7150 92° East 522 601 39,000  Level FlightAware ADS-B
Thu 05:42:52 PM 42.5880 -90.5880 91° East 523 602 39,000  Level FlightAware ADS-B
Thu 05:43:28 PM 42.5850 -90.4680 92° East 522 601 39,000  Level FlightAware ADS-B
Thu 05:44:23 PM 42.5810 -90.2930 92° East 520 598 39,000  Level FlightAware ADS-B
Thu 05:45:09 PM 42.5770 -90.1430 92° East 515 593 39,000  Level FlightAware ADS-B
Thu 05:45:49 PM 42.5730 -90.0100 92° East 508 585 39,000  Level FlightAware ADS-B
Thu 05:46:33 PM 42.5690 -89.8720 92° East 504 580 39,000  Level FlightAware ADS-B
Thu 05:47:14 PM 42.5660 -89.7450 92° East 501 577 39,000  Level FlightAware ADS-B
Thu 05:47:57 PM 42.5620 -89.6120 92° East 498 573 39,000  Level FlightAware ADS-B
Thu 05:48:37 PM 42.5580 -89.4880 92° East 499 574 39,000  Level FlightAware ADS-B
Thu 05:49:20 PM 42.5530 -89.3590 93° East 499 574 39,000  Level FlightAware ADS-B
Thu 05:50:01 PM 42.5490 -89.2220 92° East 500 575 39,000  Level FlightAware ADS-B
Thu 05:50:46 PM 42.5440 -89.0830 93° East 501 577 39,000  Level FlightAware ADS-B
Thu 05:51:27 PM 42.5390 -88.9580 93° East 500 575 39,000  Level FlightAware ADS-B
Thu 05:52:09 PM 42.5340 -88.8250 93° East 501 577 39,000  Level FlightAware ADS-B
Thu 05:52:49 PM 42.5290 -88.6970 93° East 502 578 39,000  Level FlightAware ADS-B
Thu 05:53:31 PM 42.5240 -88.5670 93° East 502 578 39,000  Level FlightAware ADS-B
Thu 05:54:13 PM 42.5190 -88.4330 93° East 503 579 39,000  Level FlightAware ADS-B
Thu 05:54:58 PM 42.5130 -88.2960 93° East 504 580 39,000  Level FlightAware ADS-B
Thu 05:55:33 PM 42.5080 -88.1830 93° East 504 580 39,000  Level FlightAware ADS-B
Thu 05:56:14 PM 42.5030 -88.0560 93° East 505 581 39,000  Level FlightAware ADS-B
Thu 05:56:51 PM 42.5000 -87.9410 92° East 504 580 39,000  Level FlightAware ADS-B
Thu 05:57:32 PM 42.5000 -87.8120 90° East 504 580 39,000  Level FlightAware ADS-B
Thu 05:58:07 PM 42.5000 -87.6970 90° East 504 580 39,000  Level FlightAware ADS-B
Thu 05:58:53 PM 42.4990 -87.5580 91° East 503 579 39,000  Level FlightAware ADS-B
Thu 05:59:38 PM 42.4990 -87.4140 90° East 503 579 39,000  Level FlightAware ADS-B
Thu 06:00:17 PM 42.4980 -87.2940 91° East 503 579 39,000  Level FlightAware ADS-B
Thu 06:01:02 PM 42.4970 -87.1490 90° East 503 579 39,000  Level FlightAware ADS-B
Thu 06:01:44 PM 42.4960 -87.0150 91° East 503 579 39,000  Level FlightAware ADS-B
Thu 06:02:20 PM 42.4950 -86.9060 91° East 503 579 39,000 -167 Level FlightAware ADS-B
Thu 06:02:56 PM 42.4940 -86.7920 91° East 502 578 38,800 -732 Descending FlightAware ADS-B
Thu 06:03:42 PM 42.4920 -86.6460 91° East 506 582 38,000 -1,012 Descending FlightAware ADS-B
Thu 06:04:19 PM 42.4910 -86.5310 91° East 509 586 37,400 -811 Descending FlightAware ADS-B
Thu 06:04:56 PM 42.4890 -86.4130 91° East 509 586 37,000 -296 Descending FlightAware ADS-B
Thu 06:05:40 PM 42.4870 -86.2680 91° East 508 585 37,000  Level FlightAware ADS-B
Thu 06:06:22 PM 42.4850 -86.1370 91° East 505 581 37,000  Level FlightAware ADS-B
Thu 06:07:06 PM 42.4830 -85.9990 91° East 504 580 37,000  Level FlightAware ADS-B
Thu 06:07:46 PM 42.4810 -85.8730 91° East 502 578 37,000  Level FlightAware ADS-B
Thu 06:08:29 PM 42.4780 -85.7400 92° East 501 577 37,000  Level FlightAware ADS-B
Thu 06:09:10 PM 42.4760 -85.6110 91° East 500 575 37,000  Level FlightAware ADS-B
Thu 06:09:45 PM 42.4740 -85.5020 91° East 499 574 37,000  Level FlightAware ADS-B
Thu 06:10:25 PM 42.4710 -85.3780 92° East 499 574 37,000  Level FlightAware ADS-B
Thu 06:11:09 PM 42.4680 -85.2430 92° East 500 575 37,000  Level FlightAware ADS-B
Thu 06:11:42 PM 42.4650 -85.1430 92° East 499 574 37,000  Level FlightAware ADS-B
Thu 06:12:25 PM 42.4620 -85.0070 92° East 499 574 37,000  Level FlightAware ADS-B
Thu 06:13:07 PM 42.4580 -84.8720 92° East 498 573 37,000  Level FlightAware ADS-B
Thu 06:13:51 PM 42.4550 -84.7410 92° East 497 572 37,000  Level FlightAware ADS-B
Thu 06:14:29 PM 42.4510 -84.6220 93° East 497 572 37,000  Level FlightAware ADS-B
Thu 06:15:11 PM 42.4470 -84.4930 92° East 497 572 37,000  Level FlightAware ADS-B
Thu 06:15:56 PM 42.4430 -84.3500 92° East 497 572 37,000  Level FlightAware ADS-B
Thu 06:16:32 PM 42.4390 -84.2370 93° East 495 570 37,000  Level FlightAware ADS-B
Thu 06:17:14 PM 42.4350 -84.1070 92° East 489 563 37,000  Level FlightAware ADS-B
Thu 06:17:56 PM 42.4310 -83.9790 92° East 480 552 37,000  Level FlightAware ADS-B
Thu 06:18:32 PM 42.4270 -83.8720 93° East 476 548 37,000  Level FlightAware ADS-B
Thu 06:19:15 PM 42.4220 -83.7460 93° East 476 548 37,000  Level FlightAware ADS-B
Thu 06:19:54 PM 42.4180 -83.6290 93° East 479 551 37,000  Level FlightAware ADS-B
Thu 06:20:38 PM 42.4130 -83.4970 93° East 480 552 37,000  Level FlightAware ADS-B
Thu 06:21:18 PM 42.4080 -83.3810 93° East 480 552 37,000  Level FlightAware ADS-B
Thu 06:21:58 PM 42.4030 -83.2570 93° East 479 551 37,000  Level FlightAware ADS-B
Thu 06:22:42 PM 42.3980 -83.1300 93° East 477 549 37,000  Level FlightAware ADS-B
Thu 06:23:20 PM 42.3930 -83.0150 93° East 475 547 37,000  Level FlightAware ADS-B
Thu 06:24:00 PM 42.3880 -82.8960 93° East 472 543 37,000  Level FlightAware ADS-B
Thu 06:24:44 PM 42.3820 -82.7700 94° East 469 540 37,000  Level FlightAware ADS-B
Thu 06:25:16 PM 42.3780 -82.6750 93° East 467 537 37,000  Level FlightAware ADS-B
Thu 06:25:58 PM 42.3730 -82.5530 93° East 470 541 37,000  Level FlightAware ADS-B
Thu 06:26:40 PM 42.3680 -82.4260 93° East 486 559 37,000  Level FlightAware ADS-B
Thu 06:27:22 PM 42.3630 -82.2970 93° East 492 566 37,000  Level FlightAware ADS-B
Thu 06:28:04 PM 42.3510 -82.1710 97° East 492 566 37,000  Level FlightAware ADS-B
Thu 06:28:59 PM 42.3360 -82.0160 97° East 494 568 37,000  Level FlightAware ADS-B
Thu 06:29:40 PM 42.3240 -81.8880 97° East 496 571 37,000  Level FlightAware ADS-B
Thu 06:30:24 PM 42.3120 -81.7580 97° East 496 571 37,000  Level FlightAware ADS-B
Thu 06:31:07 PM 42.3000 -81.6190 97° East 497 572 37,000  Level FlightAware ADS-B
Thu 06:31:42 PM 42.2900 -81.5160 97° East 497 572 37,000  Level FlightAware ADS-B
Thu 06:32:31 PM 42.2760 -81.3720 97° East 493 567 37,000  Level FlightAware ADS-B
Thu 06:33:13 PM 42.2630 -81.2450 98° East 492 566 37,000  Level FlightAware ADS-B
Thu 06:33:49 PM 42.2510 -81.1260 98° East 491 565 37,000  Level FlightAware ADS-B
Thu 06:34:32 PM 42.2380 -81.0050 98° East 489 563 37,000  Level FlightAware ADS-B
Thu 06:35:18 PM 42.2220 -80.8540 98° East 486 559 37,000  Level FlightAware ADS-B
Thu 06:36:01 PM 42.2100 -80.7320 98° East 484 557 37,000  Level FlightAware ADS-B
Thu 06:36:41 PM 42.1970 -80.6150 98° East 481 554 37,000  Level FlightAware ADS-B
Thu 06:37:18 PM 42.1860 -80.5150 98° East 478 550 37,000  Level FlightAware ADS-B
Thu 06:37:58 PM 42.1730 -80.3910 98° East 476 548 37,000  Level FlightAware ADS-B
Thu 06:38:44 PM 42.1590 -80.2620 98° East 474 545 37,000  Level FlightAware ADS-B
Thu 06:39:29 PM 42.1430 -80.1230 99° East 471 542 37,000  Level FlightAware ADS-B
Thu 06:40:12 PM 42.1300 -80.0040 98° East 469 540 37,000  Level FlightAware ADS-B
Thu 06:40:52 PM 42.1140 -79.8690 99° East 467 537 37,000  Level FlightAware ADS-B
Thu 06:41:35 PM 42.1000 -79.7470 99° East 468 539 37,000  Level FlightAware ADS-B
Thu 06:42:21 PM 42.0850 -79.6160 99° East 469 540 37,000  Level FlightAware ADS-B
Thu 06:43:01 PM 42.0710 -79.4970 99° East 471 542 37,000  Level FlightAware ADS-B
Thu 06:43:43 PM 42.0570 -79.3810 99° East 473 544 37,000  Level FlightAware ADS-B
Thu 06:44:22 PM 42.0430 -79.2630 99° East 475 547 37,000  Level FlightAware ADS-B
Thu 06:45:00 PM 42.0300 -79.1540 99° East 476 548 37,000  Level FlightAware ADS-B
Thu 06:45:40 PM 42.0160 -79.0350 99° East 475 547 37,000  Level FlightAware ADS-B
Thu 06:46:20 PM 42.0020 -78.9240 100° East 474 545 37,000  Level FlightAware ADS-B
Thu 06:47:01 PM 41.9870 -78.8050 100° East 473 544 37,000  Level FlightAware ADS-B
Thu 06:47:42 PM 41.9720 -78.6820 99° East 473 544 37,000  Level FlightAware ADS-B
Thu 06:48:20 PM 41.9590 -78.5740 99° East 471 542 37,000  Level FlightAware ADS-B
Thu 06:49:06 PM 41.9420 -78.4400 100° East 470 541 37,000  Level FlightAware ADS-B
Thu 06:49:44 PM 41.9280 -78.3330 100° East 469 540 37,000  Level FlightAware ADS-B
Thu 06:50:28 PM 41.9120 -78.2140 100° East 467 537 37,000  Level FlightAware ADS-B
Thu 06:51:12 PM 41.8950 -78.0800 100° East 468 539 37,000  Level FlightAware ADS-B
Thu 06:51:48 PM 41.8820 -77.9790 100° East 469 540 37,000  Level FlightAware ADS-B
Thu 06:52:28 PM 41.8650 -77.8660 101° East 466 536 37,000  Level FlightAware ADS-B
Thu 06:53:08 PM 41.8390 -77.7540 107° East 462 532 37,000  Level FlightAware ADS-B
Thu 06:53:44 PM 41.8140 -77.6570 109° East 461 531 37,000  Level FlightAware ADS-B
Thu 06:54:26 PM 41.7840 -77.5440 110° East 460 529 37,000  Level FlightAware ADS-B
Thu 06:55:10 PM 41.7520 -77.4250 110° East 460 529 37,000  Level FlightAware ADS-B
Thu 06:55:50 PM 41.7240 -77.3220 110° East 459 528 37,000  Level FlightAware ADS-B
Thu 06:56:35 PM 41.6920 -77.2020 110° East 457 526 37,000  Level FlightAware ADS-B
Thu 06:57:27 PM 41.6560 -77.0680 110° East 456 525 37,000  Level FlightAware ADS-B
Thu 06:58:06 PM 41.6290 -76.9670 110° East 455 524 37,000  Level FlightAware ADS-B
Thu 06:58:41 PM 41.6030 -76.8720 110° East 453 521 37,000  Level FlightAware ADS-B
Thu 06:59:33 PM 41.5644 -76.7308 110° East 451 519 37,000  Level FlightAware ADS-B
Thu 07:00:04 PM 41.5425 -76.6510 110° East 449 517 37,000  Level FlightAware ADS-B
Thu 07:00:35 PM 41.5198 -76.5685 110° East 446 513 37,000 -97 Level FlightAware ADS-B
Thu 07:01:06 PM 41.4982 -76.4906 110° East 444 511 36,900 -476 Descending FlightAware ADS-B
Thu 07:01:38 PM 41.4754 -76.4085 110° East 442 509 36,500 -952 Descending FlightAware ADS-B
Thu 07:02:09 PM 41.4532 -76.3287 110° East 443 510 35,900 -1,065 Descending FlightAware ADS-B
Thu 07:02:40 PM 41.4316 -76.2513 110° East 444 511 35,400 -885 Descending FlightAware ADS-B
Thu 07:03:10 PM 41.4099 -76.1741 111° Southeast 442 509 35,000 -900 Descending FlightAware ADS-B
Thu 07:03:40 PM 41.3885 -76.0974 110° East 441 507 34,500 -857 Descending FlightAware ADS-B
Thu 07:04:13 PM 41.3655 -76.0157 111° Southeast 437 503 34,100 -844 Descending FlightAware ADS-B
Thu 07:04:44 PM 41.3433 -75.9373 111° Southeast 439 505 33,600 -1,279 Descending FlightAware ADS-B
Thu 07:05:14 PM 41.3215 -75.8608 111° Southeast 446 513 32,800 -1,742 Descending FlightAware ADS-B
Thu 07:05:46 PM 41.2976 -75.7767 111° Southeast 459 528 31,800 -1,905 Descending FlightAware ADS-B
Thu 07:06:17 PM 41.2738 -75.6954 111° Southeast 468 539 30,800 -2,951 Descending FlightAware ADS-B
Thu 07:06:47 PM 41.2478 -75.6144 113° Southeast 480 552 28,800 -3,934 Descending FlightAware ADS-B
Thu 07:07:18 PM 41.2204 -75.5319 114° Southeast 485 558 26,800 -3,443 Descending FlightAware ADS-B
Thu 07:07:48 PM 41.1931 -75.4501 114° Southeast 477 549 25,300 -2,954 Descending FlightAware ADS-B
Thu 07:08:23 PM 41.1620 -75.3577 114° Southeast 469 540 23,600 -2,123 Descending FlightAware ADS-B
Thu 07:08:53 PM 41.1357 -75.2797 114° Southeast 456 525 23,000 -581 Descending FlightAware ADS-B
Thu 07:09:25 PM 41.1083 -75.1986 114° Southeast 454 522 23,000  Level FlightAware ADS-B
Thu 07:09:57 PM 41.0807 -75.1176 114° Southeast 454 522 23,000  Level FlightAware ADS-B
Thu 07:10:28 PM 41.0544 -75.0403 114° Southeast 454 522 23,000  Level FlightAware ADS-B
Thu 07:10:58 PM 41.0283 -74.9635 114° Southeast 456 525 23,000  Level FlightAware ADS-B
Thu 07:11:24 PM 41.0065 -74.8965 113° Southeast 459 528 23,000  Level FlightAware ADS-B
Thu 07:11:39 PM 40.9971 -74.8574 108° East 460 529 23,000 -1,125 Level FlightAware ADS-B
Thu 07:12:12 PM 40.9792 -74.7679 105° East 453 521 22,100 -2,063 Descending FlightAware ADS-B
Thu 07:12:43 PM 40.9629 -74.6863 105° East 444 511 20,800 -2,459 Descending FlightAware ADS-B
Thu 07:13:13 PM 40.9479 -74.6053 104° East 432 497 19,600 -1,770 Descending FlightAware ADS-B
Thu 07:13:44 PM 40.9296 -74.5298 108° East 426 490 19,000 -783 Descending FlightAware ADS-B
Thu 07:13:59 PM 40.9217 -74.4941 106° East 425 489 19,000  Level FlightAware ADS-B
Thu 07:14:15 PM 40.9128 -74.4539 106° East 426 490 19,000  Level FlightAware ADS-B
Thu 07:14:39 PM 40.8996 -74.3937 106° East 419 482 19,000  Level FlightAware ADS-B
Thu 07:14:45 PM 40.8964 -74.3785 106° East 413 475 19,000  Level FlightAware ADS-B
Thu 07:15:16 PM 40.8810 -74.3075 106° East 375 432 19,000  Level FlightAware ADS-B
Thu 07:15:46 PM 40.8670 -74.2437 106° East 342 394 19,000  Level FlightAware ADS-B
Thu 07:15:58 PM 40.8609 -74.2216 110° East 332 382 19,000 -143 Level FlightAware ADS-B
Thu 07:16:28 PM 40.8434 -74.1656 112° Southeast 329 379 18,900 -909 Descending FlightAware ADS-B
Thu 07:17:04 PM 40.8216 -74.0989 113° Southeast 334 384 18,000 -1,469 Descending FlightAware ADS-B
Thu 07:17:17 PM 40.8130 -74.0739 114° Southeast 330 380 17,700 -1,500 Descending FlightAware ADS-B
Thu 07:17:36 PM 40.8016 -74.0406 114° Southeast 329 379 17,200 -1,560 Descending FlightAware ADS-B
Thu 07:18:07 PM 40.7827 -73.9842 114° Southeast 325 374 16,400 -1,636 Descending FlightAware ADS-B
Thu 07:18:09 PM 40.7812 -73.9797 114° Southeast 327 376 16,300 -2,250 Descending FlightAware ADS-B
Thu 07:18:47 PM 40.7585 -73.9135 114° Southeast 312 359 14,900 -2,348 Descending FlightAware ADS-B
Thu 07:19:18 PM 40.7390 -73.8593 115° Southeast 310 357 13,600 -2,400 Descending FlightAware ADS-B
Thu 07:19:22 PM 40.7366 -73.8528 116° Southeast 321 369 13,500 -1,105 Descending FlightAware ADS-B
Thu 07:19:56 PM 40.7150 -73.7958 117° Southeast 307 353 12,900 -537 Descending FlightAware ADS-B
Thu 07:20:29 PM 40.6960 -73.7450 116° Southeast 303 349 12,900 -95 Level FlightAware ADS-B
Thu 07:20:59 PM 40.6761 -73.6918 116° Southeast 306 352 12,800  Descending FlightAware ADS-B
Thu 07:21:45 PM 40.6630 -73.6090 102° East 309 356 12,900  Climbing FlightAware ADS-B
Thu 07:22:08 PM 40.6582 -73.5664 98° East 305 351 12,800 -1,412 Descending FlightAware ADS-B
Thu 07:22:36 PM 40.6348 -73.5258 127° Southeast 293 337 11,700 -2,364 Descending FlightAware ADS-B
Thu 07:22:41 PM 40.6291 -73.5212 149° Southeast 289 333 11,500 -2,118 Descending FlightAware ADS-B
Thu 07:22:53 PM 40.6143 -73.5148 162° South 285 328 11,100 -2,286 Descending FlightAware ADS-B
Thu 07:23:02 PM 40.6025 -73.5146 179° South 283 326 10,700 -2,700 Descending FlightAware ADS-B
Thu 07:23:13 PM 40.5886 -73.5196 195° South 281 323 10,200 -2,609 Descending FlightAware ADS-B
Thu 07:23:25 PM 40.5743 -73.5268 201° Southwest 283 326 9,700 -2,455 Descending FlightAware ADS-B
Thu 07:23:35 PM 40.5619 -73.5307 193° South 284 327 9,300 -2,444 Descending FlightAware ADS-B
Thu 07:23:52 PM 40.5402 -73.5350 189° South 285 328 8,600 -2,647 Descending FlightAware ADS-B
Thu 07:24:09 PM 40.5178 -73.5384 187° South 285 328 7,800 -2,229 Descending FlightAware ADS-B
Thu 07:24:27 PM 40.4934 -73.5417 186° South 286 329 7,300 -1,421 Descending FlightAware ADS-B
Thu 07:24:47 PM 40.4674 -73.5452 186° South 286 329 6,900 -732 Descending FlightAware ADS-B
Thu 07:25:08 PM 40.4394 -73.5493 186° South 288 331 6,800 -158 Descending FlightAware ADS-B
Thu 07:25:25 PM 40.4180 -73.5522 186° South 286 329 6,800  Level FlightAware ADS-B
Thu 07:25:44 PM 40.3930 -73.5557 186° South 282 325 6,800 -316 Level FlightAware ADS-B
Thu 07:26:03 PM 40.3674 -73.5590 186° South 278 320 6,600 -1,263 Descending FlightAware ADS-B
Thu 07:26:22 PM 40.3442 -73.5621 186° South 278 320 6,000 -2,000 Descending FlightAware ADS-B
Thu 07:26:39 PM 40.3219 -73.5660 188° South 278 320 5,400 -1,200 Descending FlightAware ADS-B
Thu 07:27:22 PM 40.2860 -73.6180 228° Southwest 280 322 4,800 -692 Descending FlightAware ADS-B
Thu 07:27:31 PM 40.2820 -73.6300 246° West 279 321 4,800  Level FlightAware ADS-B
Thu 07:27:58 PM 40.2670 -73.6730 245° Southwest 279 321 4,800 103 Level FlightAware ADS-B
Thu 07:28:29 PM 40.2500 -73.7190 244° Southwest 280 322 4,900 80 Climbing FlightAware ADS-B
Thu 07:29:13 PM 40.2370 -73.7870 256° West 248 285 4,900 -167 Level FlightAware ADS-B
Thu 07:29:41 PM 40.2340 -73.8260 264° West 232 267 4,700 -600 Descending FlightAware ADS-B
Thu 07:29:53 PM 40.2330 -73.8440 266° West 233 268 4,500 -1,029 Descending FlightAware ADS-B
Thu 07:30:16 PM 40.2310 -73.8780 266° West 235 270 4,100 -800 Descending FlightAware ADS-B
Thu 07:30:38 PM 40.2360 -73.9040 284° West 233 268 3,900 -383 Descending FlightAware ADS-B
Thu 07:31:03 PM 40.2470 -73.9390 292° West 229 264 3,800  Descending FlightAware ADS-B
Thu 07:31:13 PM 40.2512 -73.9527 292° West 232 267 3,900 222 Climbing FlightAware ADS-B
Thu 07:31:30 PM 40.2582 -73.9739 293° West 229 264 3,900  Level FlightAware ADS-B
Thu 07:31:37 PM 40.2626 -73.9819 306° West 227 261 3,900  Level FlightAware ADS-B
Thu 07:31:41 PM 40.2655 -73.9854 317° Northwest 223 257 3,900  Level FlightAware ADS-B
Thu 07:31:48 PM 40.2711 -73.9905 325° Northwest 219 252 3,900  Level FlightAware ADS-B
Thu 07:32:00 PM 40.2823 -73.9970 336° Northwest 218 251 3,900  Level FlightAware ADS-B
Thu 07:32:06 PM 40.2882 -73.9987 348° North 217 250 3,900  Level FlightAware ADS-B
Thu 07:32:17 PM 40.2989 -74.0006 352° North 216 249 3,900 -214 Level FlightAware ADS-B
Thu 07:32:34 PM 40.3155 -74.0028 354° North 215 247 3,800 -240 Descending FlightAware ADS-B
Thu 07:32:42 PM 40.3238 -74.0033 357° North 213 245 3,800 353 Level FlightAware ADS-B
Thu 07:32:51 PM 40.3324 -74.0015 North 210 242 3,900 316 Climbing FlightAware ADS-B
Thu 07:33:01 PM 40.3416 -73.9982 15° North 209 241 3,900  Level FlightAware ADS-B
Thu 07:33:09 PM 40.3494 -73.9948 18° North 211 243 3,900  Level FlightAware ADS-B
Thu 07:33:29 PM 40.3667 -73.9840 25° Northeast 208 239 3,900 -162 Level FlightAware ADS-B
Thu 07:33:46 PM 40.3812 -73.9733 29° Northeast 205 236 3,800  Descending FlightAware ADS-B
Thu 07:34:03 PM 40.3938 -73.9633 31° Northeast 188 216 3,900 136 Climbing FlightAware ADS-B
Thu 07:34:30 PM 40.4134 -73.9481 31° Northeast 177 204 3,900  Level FlightAware ADS-B
Thu 07:35:18 PM 40.4460 -73.9230 30° Northeast 178 205 3,900 -316 Level FlightAware ADS-B
Thu 07:35:46 PM 40.4640 -73.9090 31° Northeast 168 193 3,500 -792 Descending FlightAware ADS-B
Thu 07:36:11 PM 40.4810 -73.8960 30° Northeast 164 189 3,200 -889 Descending FlightAware ADS-B
Thu 07:36:40 PM 40.5010 -73.8800 31° Northeast 159 183 2,700 -923 Descending FlightAware ADS-B
Thu 07:36:50 PM 40.5070 -73.8750 32° Northeast 157 181 2,600 -900 Descending FlightAware ADS-B
Thu 07:37:20 PM 40.5250 -73.8610 31° Northeast 156 180 2,100 -915 Descending FlightAware ADS-B
Thu 07:37:49 PM 40.5430 -73.8470 31° Northeast 152 175 1,700 -814 Descending FlightAware ADS-B
Thu 07:38:19 PM 40.5620 -73.8330 29° Northeast 147 169 1,300 -764 Descending FlightAware ADS-B
Thu 07:38:44 PM 40.5750 -73.8220 33° Northeast 124 143 1,000 -643 Descending FlightAware ADS-B
Thu 07:39:15 PM 40.5900 -73.8110 29° Northeast 117 135 700 -571 Descending FlightAware ADS-B
Thu 07:39:26 PM 40.5950 -73.8070 31° Northeast 119 137 600 -682 Descending FlightAware ADS-B
Thu 07:39:59 PM 40.6100 -73.7950 31° Northeast 121 139 200 -727 Descending FlightAware ADS-B
Thu 07:40:20 PM 40.6200 -73.7870 31° Northeast 120 138 -571 Descending FlightAware ADS-B
Thu 07:40:48 PM 40.6310 -73.7780 32° Northeast 52 60  Level FlightAware ADS-B
Thu 07:41:15 PM 40.6330 -73.7780 360° North 27 31  Level FlightAware ADS-B
Thu 07:41:55 PM 40.6340 -73.7780 360° North 12 14  Level FlightAware ADS-B
Thu 07:42:44 PM 40.6350 -73.7780 360° North 16 18  Level FlightAware ADS-B

Login

Don't have an account? Register now (free) for customized features, flight alerts, and more!